createdAt,value
2023-01-11T00:06:23.747Z,972.34
2023-01-11T00:16:23.933Z,972.24
2023-01-11T00:26:24.083Z,972.21
2023-01-11T00:36:24.265Z,972.08
2023-01-11T00:46:24.608Z,971.83
2023-01-11T00:56:24.682Z,971.97
2023-01-11T01:06:24.983Z,971.77
2023-01-11T01:16:25.056Z,971.83
2023-01-11T01:26:25.555Z,971.71
2023-01-11T01:36:25.390Z,971.58
2023-01-11T01:46:25.638Z,971.50
2023-01-11T01:56:25.692Z,971.45
2023-01-11T02:06:25.991Z,971.37
2023-01-11T02:16:26.105Z,971.17
2023-01-11T02:26:26.218Z,971.12
2023-01-11T02:36:26.539Z,970.90
2023-01-11T02:46:26.694Z,970.83
2023-01-11T02:56:26.815Z,970.77
2023-01-11T03:06:27.159Z,970.74
2023-01-11T03:16:27.193Z,970.68
2023-01-11T03:26:29.290Z,970.62
2023-01-11T03:36:27.439Z,970.67
2023-01-11T03:46:27.951Z,970.65
2023-01-11T03:56:27.804Z,970.58
2023-01-11T04:06:28.088Z,970.41
2023-01-11T04:16:28.233Z,970.34
2023-01-11T04:26:28.331Z,970.16
2023-01-11T04:36:28.484Z,970.24
2023-01-11T04:46:28.711Z,970.24
2023-01-11T04:56:28.886Z,970.28
2023-01-11T05:06:29.150Z,969.96
2023-01-11T05:16:29.326Z,970.09
2023-01-11T05:26:29.429Z,969.86
2023-01-11T05:36:29.683Z,969.75
2023-01-11T05:46:29.793Z,969.71
2023-01-11T05:56:29.946Z,969.72
2023-01-11T06:06:30.238Z,969.65
2023-01-11T06:16:30.554Z,969.59
2023-01-11T06:26:30.537Z,969.79
2023-01-11T06:36:30.716Z,969.80
2023-01-11T06:46:30.952Z,969.61
2023-01-11T06:56:31.069Z,969.34
2023-01-11T07:06:31.304Z,969.39
2023-01-11T07:16:31.547Z,969.32
2023-01-11T07:26:31.640Z,969.29
2023-01-11T07:36:31.736Z,969.38
2023-01-11T07:46:32.094Z,969.19
2023-01-11T07:56:32.235Z,969.29
2023-01-11T08:06:32.250Z,969.25
2023-01-11T08:16:32.603Z,969.14
2023-01-11T08:26:32.843Z,969.23
2023-01-11T08:36:32.607Z,969.32
2023-01-11T08:46:32.991Z,969.29
2023-01-11T08:56:33.097Z,969.53
2023-01-11T09:06:33.089Z,969.61
2023-01-11T09:16:33.252Z,969.60
2023-01-11T09:26:33.482Z,969.39
2023-01-11T09:36:33.635Z,969.55
2023-01-11T09:46:33.913Z,969.53
2023-01-11T09:56:33.955Z,969.31
2023-01-11T10:06:34.509Z,969.40
2023-01-11T10:18:27.916Z,969.18
2023-01-11T10:26:35.493Z,969.09
2023-01-11T10:36:34.597Z,969.09
2023-01-11T10:46:34.852Z,969.13
2023-01-11T10:56:34.896Z,969.06
2023-01-11T11:06:35.301Z,968.96
2023-01-11T11:16:35.322Z,969.00
2023-01-11T11:26:35.521Z,968.96
2023-01-11T11:36:35.571Z,968.80
2023-01-11T11:46:35.808Z,968.66
2023-01-11T11:56:35.914Z,968.72
2023-01-11T12:06:36.140Z,968.61
2023-01-11T12:16:36.574Z,968.48
2023-01-11T12:26:36.514Z,968.38
2023-01-11T12:36:36.779Z,968.29
2023-01-11T12:46:36.737Z,968.34
2023-01-11T12:56:36.919Z,968.43
2023-01-11T13:06:37.309Z,968.47
2023-01-11T13:16:37.343Z,968.50
2023-01-11T13:26:37.521Z,968.48
2023-01-11T13:36:37.821Z,968.73
2023-01-11T13:46:37.877Z,968.70
2023-01-11T13:56:37.936Z,968.94
2023-01-11T14:06:38.201Z,968.96
2023-01-11T14:16:38.235Z,969.17
2023-01-11T14:26:38.550Z,969.34
2023-01-11T14:36:38.599Z,969.53
2023-01-11T14:46:38.869Z,969.82
2023-01-11T14:56:38.911Z,969.99
2023-01-11T15:06:39.163Z,970.07
2023-01-11T15:16:39.252Z,970.16
2023-01-11T15:26:39.506Z,970.45
2023-01-11T15:36:39.567Z,970.49
2023-01-11T15:46:40.044Z,970.69
2023-01-11T15:56:39.886Z,970.97
2023-01-11T16:06:40.124Z,971.19
2023-01-11T16:16:40.288Z,971.45
2023-01-11T16:26:40.486Z,971.60
2023-01-11T16:36:40.669Z,971.72
2023-01-11T16:46:40.924Z,971.90
2023-01-11T16:56:40.933Z,972.07
2023-01-11T17:06:41.223Z,972.24
2023-01-11T17:16:41.450Z,972.39
2023-01-11T17:26:41.833Z,972.55
2023-01-11T17:36:41.659Z,972.57
2023-01-11T17:46:41.885Z,972.60
2023-01-11T17:56:41.963Z,972.60
2023-01-11T18:06:42.730Z,972.87
2023-01-11T18:16:42.456Z,973.03
2023-01-11T18:26:42.644Z,972.93
2023-01-11T18:36:42.785Z,972.89
2023-01-11T18:46:42.797Z,972.94
2023-01-11T18:56:43.001Z,973.13
2023-01-11T19:06:43.644Z,973.31
2023-01-11T19:16:43.290Z,973.29
2023-01-11T19:26:43.607Z,973.70
2023-01-11T19:36:43.711Z,973.60
2023-01-11T19:46:44.210Z,973.63
2023-01-11T19:56:44.080Z,973.70
2023-01-11T20:06:44.216Z,973.80
2023-01-11T20:16:44.404Z,973.76
2023-01-11T20:26:44.698Z,973.87
2023-01-11T20:36:44.775Z,973.95
2023-01-11T20:46:47.535Z,974.10
2023-01-11T20:56:45.187Z,974.08
2023-01-11T21:06:45.469Z,974.10
2023-01-11T21:16:45.557Z,974.25
2023-01-11T21:26:46.192Z,974.33
2023-01-11T21:36:45.950Z,974.25
2023-01-11T21:46:46.323Z,974.46
2023-01-11T21:56:46.184Z,974.51
2023-01-11T22:06:46.496Z,974.36
2023-01-11T22:16:46.601Z,974.39
2023-01-11T22:26:47.167Z,974.37
2023-01-11T22:36:47.119Z,973.99
2023-01-11T22:46:47.213Z,974.31
2023-01-11T22:56:47.380Z,974.47
2023-01-11T23:06:47.626Z,974.33
2023-01-11T23:16:47.767Z,974.28
2023-01-11T23:26:47.948Z,974.31
2023-01-11T23:36:48.059Z,974.31
2023-01-11T23:46:48.289Z,974.28
2023-01-11T23:56:48.460Z,974.12
